createdAt,value
2018-06-17T00:01:27.497Z,37.13
2018-06-17T00:03:55.810Z,37.90
2018-06-17T00:06:24.134Z,40.33
2018-06-17T00:08:52.433Z,40.33
2018-06-17T00:13:55.313Z,39.83
2018-06-17T00:16:23.579Z,42.23
2018-06-17T00:18:51.873Z,38.67
2018-06-17T00:21:20.144Z,42.37
2018-06-17T00:23:48.408Z,43.57
2018-06-17T00:26:16.704Z,42.40
2018-06-17T00:28:44.954Z,41.90
2018-06-17T00:31:13.260Z,46.57
2018-06-17T00:33:41.517Z,48.13
2018-06-17T00:36:09.800Z,46.77
2018-06-17T00:38:38.082Z,42.40
2018-06-17T00:41:06.381Z,45.77
2018-06-17T00:43:34.666Z,42.67
2018-06-17T00:46:02.912Z,44.63
2018-06-17T00:48:31.204Z,41.67
2018-06-17T00:50:59.463Z,41.07
2018-06-17T00:53:27.756Z,38.10
2018-06-17T00:55:56.032Z,40.37
2018-06-17T00:58:24.306Z,39.13
2018-06-17T01:00:52.621Z,39.30
2018-06-17T01:03:20.868Z,41.37
2018-06-17T01:05:49.124Z,42.50
2018-06-17T01:08:17.401Z,47.63
2018-06-17T01:10:45.688Z,43.70
2018-06-17T01:13:13.940Z,47.00
2018-06-17T01:15:42.221Z,45.97
2018-06-17T01:18:10.483Z,47.97
2018-06-17T01:20:38.721Z,46.33
2018-06-17T01:23:13.078Z,50.73
2018-06-17T01:25:41.328Z,50.93
2018-06-17T01:28:09.565Z,50.67
2018-06-17T01:30:37.827Z,55.57
2018-06-17T01:33:06.157Z,55.93
2018-06-17T01:35:34.393Z,57.83
2018-06-17T01:38:02.676Z,62.27
2018-06-17T01:40:30.948Z,59.83
2018-06-17T01:42:59.205Z,63.90
2018-06-17T01:45:27.429Z,60.87
2018-06-17T01:47:55.917Z,69.07
2018-06-17T01:50:23.892Z,70.77
2018-06-17T01:52:52.372Z,69.07
2018-06-17T01:55:20.629Z,64.33
2018-06-17T01:57:48.878Z,67.07
2018-06-17T02:00:17.148Z,70.70
2018-06-17T02:02:45.536Z,71.07
2018-06-17T02:05:19.130Z,63.97
2018-06-17T02:07:52.704Z,62.60
2018-06-17T02:10:26.251Z,67.87
2018-06-17T02:12:54.545Z,69.40
2018-06-17T02:15:22.804Z,71.00
2018-06-17T02:17:51.058Z,68.47
2018-06-17T02:20:19.341Z,62.73
2018-06-17T02:22:47.613Z,75.97
2018-06-17T02:25:15.892Z,67.27
2018-06-17T02:27:44.160Z,70.90
2018-06-17T02:30:12.465Z,63.30
2018-06-17T02:32:40.714Z,63.00
2018-06-17T02:35:08.992Z,64.77
2018-06-17T02:37:37.254Z,66.57
2018-06-17T02:40:05.694Z,71.40
2018-06-17T02:42:33.913Z,69.93
2018-06-17T02:45:07.525Z,65.47
2018-06-17T02:47:41.241Z,70.13
2018-06-17T02:50:14.819Z,65.97
2018-06-17T02:52:48.457Z,66.17
2018-06-17T02:55:16.923Z,65.80
2018-06-17T02:57:45.156Z,68.27
2018-06-17T03:00:13.449Z,62.90
2018-06-17T03:02:41.716Z,67.27
2018-06-17T03:05:09.947Z,72.37
2018-06-17T03:07:38.284Z,65.57
2018-06-17T03:10:06.653Z,64.40
2018-06-17T03:12:35.069Z,64.83
2018-06-17T03:15:03.333Z,72.13
2018-06-17T03:17:31.605Z,67.60
2018-06-17T03:19:59.888Z,73.03
2018-06-17T03:22:28.165Z,77.33
2018-06-17T03:25:01.874Z,76.10
2018-06-17T03:27:35.584Z,78.37
2018-06-17T03:30:09.165Z,73.07
2018-06-17T03:32:42.836Z,77.27
2018-06-17T03:35:16.569Z,73.90
2018-06-17T03:37:44.980Z,83.07
2018-06-17T03:40:13.298Z,76.93
2018-06-17T03:42:41.532Z,75.93
2018-06-17T03:45:09.792Z,69.47
2018-06-17T03:47:38.164Z,68.03
2018-06-17T03:50:06.445Z,71.47
2018-06-17T03:52:34.693Z,68.00
2018-06-17T03:55:02.996Z,78.00
2018-06-17T03:57:31.268Z,75.07
2018-06-17T03:59:59.544Z,76.87
2018-06-17T04:02:27.824Z,66.40
2018-06-17T04:05:01.356Z,75.13
2018-06-17T04:07:29.671Z,72.33
2018-06-17T04:09:57.918Z,77.90
2018-06-17T04:12:26.168Z,72.77
2018-06-17T04:14:54.429Z,67.43
2018-06-17T04:17:22.705Z,71.50
2018-06-17T04:19:50.980Z,71.97
2018-06-17T04:22:19.244Z,64.40
2018-06-17T04:24:47.533Z,60.17
2018-06-17T04:27:15.811Z,58.77
2018-06-17T04:29:44.132Z,52.47
2018-06-17T04:32:13.304Z,59.17
2018-06-17T04:34:41.564Z,61.03
2018-06-17T04:37:09.816Z,61.17
2018-06-17T04:39:38.119Z,63.13
2018-06-17T04:42:06.380Z,57.83
2018-06-17T04:44:34.669Z,58.23
2018-06-17T04:47:02.976Z,54.47
2018-06-17T04:49:31.244Z,56.43
2018-06-17T04:51:59.504Z,62.73
2018-06-17T04:54:27.777Z,59.43
2018-06-17T04:56:56.022Z,60.33
2018-06-17T04:59:24.304Z,58.83
2018-06-17T05:01:52.521Z,53.07
2018-06-17T05:04:20.781Z,63.73
2018-06-17T05:06:48.764Z,61.37
2018-06-17T05:09:17.036Z,58.70
2018-06-17T05:11:45.301Z,53.63
2018-06-17T05:14:13.576Z,54.00
2018-06-17T05:16:41.861Z,51.13
2018-06-17T05:19:10.144Z,40.00
2018-06-17T05:21:38.805Z,45.50
2018-06-17T05:24:07.088Z,45.43
2018-06-17T05:26:35.377Z,38.37
2018-06-17T05:29:03.737Z,41.53
2018-06-17T05:31:31.987Z,44.57
2018-06-17T05:34:00.320Z,40.10
2018-06-17T05:36:28.530Z,41.50
2018-06-17T05:38:56.832Z,37.37
2018-06-17T05:41:25.071Z,37.70
2018-06-17T05:43:53.305Z,37.00
2018-06-17T05:46:21.559Z,33.17
2018-06-17T05:48:49.796Z,37.00
2018-06-17T05:51:18.049Z,29.53
2018-06-17T05:53:46.282Z,28.17
2018-06-17T05:56:14.632Z,35.27
2018-06-17T05:58:42.877Z,33.30
2018-06-17T06:01:11.111Z,25.60
2018-06-17T06:03:39.417Z,22.10
2018-06-17T06:06:07.738Z,24.33
2018-06-17T06:08:35.983Z,24.33
2018-06-17T06:11:04.233Z,19.73
2018-06-17T06:13:32.545Z,19.53
2018-06-17T06:16:00.820Z,17.33
2018-06-17T06:18:29.089Z,17.33
2018-06-17T06:20:57.359Z,17.37
2018-06-17T06:23:25.697Z,16.10
2018-06-17T06:25:53.975Z,15.90
2018-06-17T06:28:22.226Z,14.67
2018-06-17T06:30:50.478Z,13.40
2018-06-17T06:33:18.757Z,13.27
2018-06-17T06:35:47.027Z,13.60
2018-06-17T06:38:15.293Z,13.67
2018-06-17T06:40:43.580Z,12.13
2018-06-17T06:43:11.875Z,9.60
2018-06-17T06:45:40.165Z,9.53
2018-06-17T06:48:08.473Z,9.33
2018-06-17T06:50:36.711Z,8.13
2018-06-17T06:53:05.080Z,9.57
2018-06-17T06:55:33.413Z,9.37
2018-06-17T06:58:01.717Z,10.03
2018-06-17T07:00:29.987Z,9.33
2018-06-17T07:03:09.836Z,9.30
2018-06-17T07:05:49.212Z,8.27
2018-06-17T07:08:28.788Z,8.03
2018-06-17T07:10:57.093Z,7.53
2018-06-17T07:13:25.389Z,8.13
2018-06-17T07:16:04.947Z,8.33
2018-06-17T07:18:36.587Z,8.30
2018-06-17T07:21:05.181Z,8.00
2018-06-17T07:23:33.415Z,7.20
2018-06-17T07:26:48.156Z,8.03
2018-06-17T07:29:30.089Z,7.03
2018-06-17T07:31:58.373Z,7.17
2018-06-17T07:34:26.661Z,7.50
2018-06-17T07:36:54.961Z,5.93
2018-06-17T07:41:34.372Z,6.23
2018-06-17T07:44:02.653Z,6.63
2018-06-17T07:46:30.968Z,6.13
2018-06-17T07:49:38.023Z,6.17
2018-06-17T07:52:18.480Z,5.40
2018-06-17T07:54:47.084Z,6.20
2018-06-17T07:57:16.562Z,6.27
2018-06-17T07:59:44.863Z,6.23
2018-06-17T08:02:13.648Z,6.23
2018-06-17T08:04:41.960Z,6.13
2018-06-17T08:07:10.188Z,5.83
2018-06-17T08:09:38.493Z,5.33
2018-06-17T08:12:08.436Z,5.40
2018-06-17T08:14:36.680Z,5.17
2018-06-17T08:17:05.024Z,6.07
2018-06-17T08:19:33.321Z,6.07
2018-06-17T08:22:02.127Z,6.53
2018-06-17T08:24:30.870Z,6.40
2018-06-17T08:26:59.124Z,5.70
2018-06-17T08:29:27.532Z,5.90
2018-06-17T08:31:56.801Z,5.77
2018-06-17T08:34:25.071Z,5.40
2018-06-17T08:36:53.396Z,5.90
2018-06-17T08:39:22.700Z,5.47
2018-06-17T08:41:50.999Z,5.43
2018-06-17T08:44:19.751Z,5.20
2018-06-17T08:46:48.775Z,4.70
2018-06-17T08:49:17.293Z,5.00
2018-06-17T08:51:45.511Z,5.40
2018-06-17T08:54:13.799Z,5.27
2018-06-17T08:56:42.057Z,4.93
2018-06-17T08:59:10.353Z,5.40
2018-06-17T09:01:38.916Z,4.47
2018-06-17T09:04:07.397Z,5.30
2018-06-17T09:06:35.661Z,4.30
2018-06-17T09:09:09.920Z,4.43
2018-06-17T09:11:38.300Z,4.20
2018-06-17T09:14:06.662Z,4.67
2018-06-17T09:16:35.028Z,4.60
2018-06-17T09:19:03.420Z,4.33
2018-06-17T09:21:31.784Z,4.30
2018-06-17T09:24:00.194Z,4.63
2018-06-17T09:26:28.532Z,4.10
2018-06-17T09:28:56.921Z,4.60
2018-06-17T09:31:25.217Z,4.83
2018-06-17T09:33:53.488Z,4.57
2018-06-17T09:36:21.785Z,4.73
2018-06-17T09:38:50.267Z,4.83
2018-06-17T09:41:18.701Z,4.90
2018-06-17T09:43:47.546Z,5.20
2018-06-17T09:46:15.843Z,4.90
2018-06-17T09:48:44.272Z,5.17
2018-06-17T09:51:12.538Z,4.20
2018-06-17T09:53:40.956Z,4.73
2018-06-17T09:56:09.240Z,5.10
2018-06-17T09:58:37.332Z,5.07
2018-06-17T10:01:05.308Z,4.53
2018-06-17T10:03:33.540Z,4.70
2018-06-17T10:06:01.821Z,4.80
2018-06-17T10:08:30.072Z,4.20
2018-06-17T10:11:02.538Z,4.47
2018-06-17T10:13:32.090Z,5.30
2018-06-17T10:16:00.396Z,4.80
2018-06-17T10:18:29.071Z,5.10
2018-06-17T10:20:57.091Z,4.73
2018-06-17T10:23:25.400Z,5.30
2018-06-17T10:25:53.668Z,5.23
2018-06-17T10:28:23.037Z,5.03
2018-06-17T10:30:52.205Z,4.60
2018-06-17T10:33:20.723Z,5.47
2018-06-17T10:35:49.124Z,5.10
2018-06-17T10:38:17.408Z,5.20
2018-06-17T10:40:45.896Z,4.90
2018-06-17T10:43:16.456Z,5.77
2018-06-17T10:45:44.826Z,5.93
2018-06-17T10:48:13.670Z,5.70
2018-06-17T10:50:42.040Z,6.00
2018-06-17T10:53:10.316Z,5.37
2018-06-17T10:55:38.644Z,5.63
2018-06-17T10:58:06.901Z,5.43
2018-06-17T11:00:35.343Z,5.43
2018-06-17T11:03:03.624Z,5.40
2018-06-17T11:05:31.936Z,6.40
2018-06-17T11:08:00.176Z,7.47
2018-06-17T11:10:28.448Z,6.03
2018-06-17T11:12:56.732Z,4.23
2018-06-17T11:15:24.961Z,4.17
2018-06-17T11:17:53.212Z,4.50
2018-06-17T11:20:21.227Z,5.53
2018-06-17T11:22:49.533Z,5.07
2018-06-17T11:25:17.808Z,4.10
2018-06-17T11:27:46.068Z,4.47
2018-06-17T11:30:14.365Z,4.40
2018-06-17T11:32:42.625Z,3.80
2018-06-17T11:35:10.893Z,3.97
2018-06-17T11:37:39.137Z,3.97
2018-06-17T11:40:07.426Z,4.10
2018-06-17T11:42:35.703Z,4.23
2018-06-17T11:45:03.929Z,4.60
2018-06-17T11:47:32.187Z,4.87
2018-06-17T11:50:00.462Z,4.60
2018-06-17T11:52:28.728Z,4.60
2018-06-17T11:54:57.381Z,4.90
2018-06-17T11:57:25.602Z,11.10
2018-06-17T11:59:53.878Z,4.50
2018-06-17T12:02:22.157Z,4.40
2018-06-17T12:04:50.482Z,4.20
2018-06-17T12:07:18.720Z,3.43
2018-06-17T12:09:46.960Z,3.63
2018-06-17T12:12:15.236Z,3.60
2018-06-17T12:14:43.587Z,4.10
2018-06-17T12:17:11.990Z,3.63
2018-06-17T12:19:40.341Z,4.35
2018-06-17T12:22:08.674Z,3.15
2018-06-17T12:24:36.949Z,3.15
2018-06-17T12:27:05.433Z,3.25
2018-06-17T12:29:33.713Z,3.22
2018-06-17T12:32:01.984Z,3.58
2018-06-17T12:34:30.285Z,3.90
2018-06-17T12:36:58.548Z,3.40
2018-06-17T12:39:26.836Z,4.10
2018-06-17T12:41:55.196Z,4.97
2018-06-17T12:44:23.448Z,4.85
2018-06-17T12:46:51.720Z,3.80
2018-06-17T12:49:20.024Z,3.83
2018-06-17T12:51:51.581Z,3.80
2018-06-17T12:54:19.852Z,3.40
2018-06-17T12:56:48.115Z,4.00
2018-06-17T12:59:16.404Z,3.73
2018-06-17T13:01:44.685Z,3.90
2018-06-17T13:04:12.984Z,3.00
2018-06-17T13:06:41.235Z,3.80
2018-06-17T13:09:10.906Z,3.23
2018-06-17T13:11:39.186Z,3.20
2018-06-17T13:14:07.871Z,3.70
2018-06-17T13:16:36.160Z,4.00
2018-06-17T13:19:04.440Z,4.03
2018-06-17T13:21:32.684Z,4.07
2018-06-17T13:24:00.912Z,5.03
2018-06-17T13:26:29.296Z,5.63
2018-06-17T13:28:57.600Z,4.93
2018-06-17T13:31:25.883Z,4.33
2018-06-17T13:33:54.153Z,37.13
2018-06-17T13:36:22.417Z,8.83
2018-06-17T13:38:50.673Z,30.20
2018-06-17T13:41:18.976Z,31.57
2018-06-17T13:43:47.592Z,11.37
2018-06-17T13:46:15.895Z,6.70
2018-06-17T13:48:44.188Z,7.57
2018-06-17T13:51:12.466Z,3.23
2018-06-17T13:53:40.749Z,16.53
2018-06-17T13:56:09.020Z,16.00
2018-06-17T13:58:37.332Z,25.83
2018-06-17T14:01:05.637Z,4.70
2018-06-17T14:03:34.000Z,4.47
2018-06-17T14:06:02.291Z,4.37
2018-06-17T14:08:30.530Z,11.20
2018-06-17T14:10:59.034Z,16.87
2018-06-17T14:13:27.383Z,5.07
2018-06-17T14:15:55.677Z,11.70
2018-06-17T14:18:23.936Z,15.07
2018-06-17T14:20:52.264Z,14.93
2018-06-17T14:23:20.617Z,32.20
2018-06-17T14:25:48.884Z,8.10
2018-06-17T14:28:18.260Z,5.97
2018-06-17T14:30:46.245Z,5.47
2018-06-17T14:33:14.747Z,6.37
2018-06-17T14:35:43.033Z,5.20
2018-06-17T14:38:11.340Z,5.23
2018-06-17T14:40:45.085Z,5.00
2018-06-17T14:43:18.770Z,5.33
2018-06-17T14:45:52.417Z,4.90
2018-06-17T14:48:26.405Z,5.10
2018-06-17T14:51:00.160Z,5.20
2018-06-17T14:53:28.505Z,9.50
2018-06-17T14:55:56.851Z,4.90
2018-06-17T14:58:25.118Z,4.73
2018-06-17T15:00:53.436Z,4.20
2018-06-17T15:03:21.708Z,4.70
2018-06-17T15:05:50.062Z,4.03
2018-06-17T15:08:18.398Z,4.30
2018-06-17T15:10:46.689Z,4.17
2018-06-17T15:13:14.984Z,4.07
2018-06-17T15:15:43.255Z,4.20
2018-06-17T15:18:11.618Z,4.13
2018-06-17T15:20:39.810Z,3.53
2018-06-17T15:23:08.096Z,4.10
2018-06-17T15:25:36.362Z,3.80
2018-06-17T15:28:04.640Z,3.97
2018-06-17T15:30:32.916Z,3.80
2018-06-17T15:34:05.873Z,4.10
2018-06-17T15:36:39.561Z,3.70
2018-06-17T15:39:13.184Z,3.30
2018-06-17T15:41:41.423Z,3.60
2018-06-17T15:44:09.737Z,3.60
2018-06-17T15:46:37.924Z,3.70
2018-06-17T15:49:06.189Z,3.60
2018-06-17T15:51:34.453Z,3.77
2018-06-17T15:54:02.801Z,3.83
2018-06-17T15:56:31.052Z,3.40
2018-06-17T15:58:59.431Z,2.80
2018-06-17T16:01:27.716Z,3.47
2018-06-17T16:03:55.984Z,3.60
2018-06-17T16:06:24.292Z,3.50
2018-06-17T16:08:52.594Z,3.17
2018-06-17T16:11:20.819Z,3.40
2018-06-17T16:13:54.510Z,2.80
2018-06-17T16:16:28.141Z,3.40
2018-06-17T16:19:01.820Z,3.53
2018-06-17T16:21:30.129Z,2.97
2018-06-17T16:23:58.404Z,2.97
2018-06-17T16:26:26.680Z,3.77
2018-06-17T16:28:54.928Z,2.70
2018-06-17T16:31:23.202Z,2.93
2018-06-17T16:33:51.479Z,3.30
2018-06-17T16:36:19.755Z,2.70
2018-06-17T16:38:48.046Z,2.60
2018-06-17T16:41:16.282Z,2.80
2018-06-17T16:43:44.533Z,2.47
2018-06-17T16:46:12.873Z,2.93
2018-06-17T16:48:41.115Z,2.90
2018-06-17T16:51:14.741Z,3.10
2018-06-17T16:53:48.423Z,2.83
2018-06-17T16:56:22.133Z,3.47
2018-06-17T16:58:55.850Z,2.80
2018-06-17T17:01:24.340Z,2.90
2018-06-17T17:03:52.700Z,2.30
2018-06-17T17:06:21.036Z,2.47
2018-06-17T17:08:49.374Z,2.70
2018-06-17T17:11:17.656Z,2.90
2018-06-17T17:13:46.405Z,2.87
2018-06-17T17:16:14.744Z,2.10
2018-06-17T17:18:43.136Z,2.50
2018-06-17T17:21:11.630Z,3.77
2018-06-17T17:23:39.938Z,2.57
2018-06-17T17:26:08.212Z,2.80
2018-06-17T17:28:36.480Z,3.83
2018-06-17T17:31:04.776Z,3.10
2018-06-17T17:33:38.392Z,3.20
2018-06-17T17:36:12.062Z,2.33
2018-06-17T17:38:45.709Z,3.00
2018-06-17T17:41:13.964Z,3.30
2018-06-17T17:43:42.433Z,3.07
2018-06-17T17:46:15.949Z,3.00
2018-06-17T17:48:44.216Z,3.00
2018-06-17T17:51:12.662Z,3.10
2018-06-17T17:53:40.912Z,3.17
2018-06-17T17:56:09.189Z,3.30
2018-06-17T17:58:37.660Z,2.33
2018-06-17T18:01:05.920Z,2.60
2018-06-17T18:03:34.246Z,2.27
2018-06-17T18:06:02.576Z,2.10
2018-06-17T18:08:30.813Z,2.47
2018-06-17T18:10:59.217Z,2.43
2018-06-17T18:13:27.521Z,2.60
2018-06-17T18:15:55.807Z,2.83
2018-06-17T18:18:23.756Z,2.10
2018-06-17T18:20:52.017Z,2.67
2018-06-17T18:23:20.277Z,2.30
2018-06-17T18:25:53.777Z,2.83
2018-06-17T18:28:27.429Z,2.33
2018-06-17T18:30:59.796Z,3.40
2018-06-17T18:33:33.243Z,2.60
2018-06-17T18:36:06.982Z,3.23
2018-06-17T18:38:35.312Z,3.73
2018-06-17T18:41:03.610Z,3.30
2018-06-17T18:43:31.912Z,2.60
2018-06-17T18:46:00.192Z,2.63
2018-06-17T18:48:28.452Z,3.10
2018-06-17T18:50:56.724Z,3.03
2018-06-17T18:53:25.708Z,3.13
2018-06-17T18:55:54.324Z,2.87
2018-06-17T18:58:22.587Z,2.60
2018-06-17T19:00:51.576Z,2.97
2018-06-17T19:03:20.380Z,3.23
2018-06-17T19:05:48.624Z,2.83
2018-06-17T19:08:22.144Z,3.10
2018-06-17T19:10:55.839Z,2.77
2018-06-17T19:13:29.477Z,2.70
2018-06-17T19:16:04.140Z,2.90
2018-06-17T19:18:32.747Z,2.70
2018-06-17T19:21:01.144Z,2.87
2018-06-17T19:23:29.408Z,2.33
2018-06-17T19:25:57.696Z,3.00
2018-06-17T19:28:25.965Z,2.83
2018-06-17T19:30:54.273Z,2.70
2018-06-17T19:33:22.729Z,2.60
2018-06-17T19:35:51.026Z,3.00
2018-06-17T19:38:19.381Z,3.07
2018-06-17T19:40:47.826Z,2.47
2018-06-17T19:43:16.053Z,2.60
2018-06-17T19:45:44.320Z,2.80
2018-06-17T19:48:12.609Z,2.60
2018-06-17T19:50:46.308Z,2.67
2018-06-17T19:53:19.932Z,2.50
2018-06-17T19:55:53.740Z,2.40
2018-06-17T19:58:27.010Z,2.90
2018-06-17T20:00:59.997Z,3.17
2018-06-17T20:03:28.364Z,2.50
2018-06-17T20:05:56.669Z,2.70
2018-06-17T20:08:24.983Z,2.90
2018-06-17T20:10:53.360Z,2.63
2018-06-17T20:13:21.644Z,3.03
2018-06-17T20:15:49.956Z,2.93
2018-06-17T20:18:18.328Z,2.43
2018-06-17T20:20:46.705Z,2.47
2018-06-17T20:23:16.457Z,2.40
2018-06-17T20:25:44.772Z,3.37
2018-06-17T20:28:12.985Z,2.60
2018-06-17T20:30:41.273Z,2.63
2018-06-17T20:33:15.028Z,2.70
2018-06-17T20:35:48.825Z,3.00
2018-06-17T20:38:22.436Z,3.00
2018-06-17T20:40:56.537Z,2.70
2018-06-17T20:43:30.135Z,2.67
2018-06-17T20:45:58.805Z,2.70
2018-06-17T20:48:27.057Z,2.97
2018-06-17T20:50:55.331Z,3.13
2018-06-17T20:53:23.572Z,2.77
2018-06-17T20:55:51.862Z,2.73
2018-06-17T20:58:20.148Z,2.90
2018-06-17T21:00:48.420Z,2.77
2018-06-17T21:03:16.747Z,2.97
2018-06-17T21:05:44.965Z,2.87
2018-06-17T21:08:13.257Z,3.13
2018-06-17T21:10:41.536Z,3.07
2018-06-17T21:13:09.800Z,3.40
2018-06-17T21:15:38.080Z,2.90
2018-06-17T21:18:06.473Z,3.40
2018-06-17T21:20:40.088Z,2.80
2018-06-17T21:23:13.672Z,2.63
2018-06-17T21:25:47.257Z,3.13
2018-06-17T21:28:15.542Z,2.57
2018-06-17T21:30:43.810Z,2.83
2018-06-17T21:33:12.076Z,3.00
2018-06-17T21:35:40.340Z,3.43
2018-06-17T21:38:08.642Z,3.30
2018-06-17T21:40:36.984Z,3.57
2018-06-17T21:43:05.296Z,3.10
2018-06-17T21:45:33.581Z,3.17
2018-06-17T21:48:01.877Z,3.20
2018-06-17T21:50:29.932Z,3.13
2018-06-17T21:52:58.200Z,3.57
2018-06-17T21:55:26.488Z,2.97
2018-06-17T21:57:54.763Z,3.33
2018-06-17T22:00:23.749Z,3.50
2018-06-17T22:02:52.017Z,3.83
2018-06-17T22:05:20.297Z,3.77
2018-06-17T22:07:54.005Z,3.87
2018-06-17T22:10:27.568Z,3.43
2018-06-17T22:12:59.015Z,4.03
2018-06-17T22:15:32.689Z,3.53
2018-06-17T22:18:01.102Z,3.90
2018-06-17T22:20:29.325Z,3.80
2018-06-17T22:22:57.619Z,3.40
2018-06-17T22:25:25.864Z,3.60
2018-06-17T22:27:54.108Z,3.60
2018-06-17T22:30:22.417Z,3.87
2018-06-17T22:32:50.661Z,4.00
2018-06-17T22:35:18.992Z,3.83
2018-06-17T22:37:47.299Z,3.70
2018-06-17T22:40:15.640Z,3.57
2018-06-17T22:42:43.877Z,3.83
2018-06-17T22:45:12.125Z,3.90
2018-06-17T22:47:45.700Z,3.40
2018-06-17T22:50:13.968Z,3.87
2018-06-17T22:52:47.856Z,3.60
2018-06-17T22:55:16.112Z,3.50
2018-06-17T22:57:49.808Z,3.70
2018-06-17T23:00:23.360Z,4.33
2018-06-17T23:02:57.012Z,3.63
2018-06-17T23:05:30.797Z,4.37
2018-06-17T23:08:04.421Z,4.70
2018-06-17T23:10:32.725Z,4.93
2018-06-17T23:13:00.968Z,5.10
2018-06-17T23:15:29.230Z,5.00
2018-06-17T23:17:57.477Z,4.73
2018-06-17T23:20:25.810Z,4.73
2018-06-17T23:22:54.132Z,5.13
2018-06-17T23:25:22.482Z,4.97
2018-06-17T23:27:50.782Z,4.87
2018-06-17T23:30:19.268Z,5.00
2018-06-17T23:32:47.729Z,4.80
2018-06-17T23:35:15.992Z,5.00
2018-06-17T23:37:44.229Z,4.23
2018-06-17T23:40:12.525Z,4.67
2018-06-17T23:42:40.883Z,4.37
2018-06-17T23:45:09.181Z,4.80
2018-06-17T23:47:42.712Z,5.23
2018-06-17T23:50:16.329Z,5.80
2018-06-17T23:52:49.970Z,4.93
2018-06-17T23:56:25.901Z,6.07
2018-06-17T23:58:54.276Z,6.00
